createdAt,value
2019-04-11T00:00:35.451Z,97503.33
2019-04-11T00:03:04.946Z,97499.08
2019-04-11T00:05:33.400Z,97508.61
2019-04-11T00:08:01.899Z,97514.03
2019-04-11T00:10:31.306Z,97507.94
2019-04-11T00:12:59.747Z,97510.67
2019-04-11T00:15:28.784Z,97510.16
2019-04-11T00:17:58.483Z,97506.69
2019-04-11T00:20:27.038Z,97512.12
2019-04-11T00:22:55.350Z,97512.51
2019-04-11T00:25:23.687Z,97512.77
2019-04-11T00:27:53.123Z,97515.19
2019-04-11T00:30:21.636Z,97508.23
2019-04-11T00:32:50.042Z,97512.25
2019-04-11T00:35:19.619Z,97510.11
2019-04-11T00:37:47.990Z,97522.48
2019-04-11T00:40:17.484Z,97516.84
2019-04-11T00:42:47.120Z,97517.70
2019-04-11T00:45:15.898Z,97524.70
2019-04-11T00:47:44.992Z,97523.70
2019-04-11T00:50:13.528Z,97522.33
2019-04-11T00:52:41.836Z,97521.27
2019-04-11T00:55:11.176Z,97523.13
2019-04-11T00:57:39.594Z,97527.14
2019-04-11T01:00:09.049Z,97523.09
2019-04-11T01:02:37.773Z,97531.40
2019-04-11T01:05:07.549Z,97525.75
2019-04-11T01:07:36.048Z,97521.49
2019-04-11T01:10:06.737Z,97524.45
2019-04-11T01:12:35.126Z,97527.67
2019-04-11T01:15:05.005Z,97533.06
2019-04-11T01:17:33.662Z,97536.30
2019-04-11T01:20:02.933Z,97537.60
2019-04-11T01:22:31.958Z,97537.06
2019-04-11T01:25:00.555Z,97535.46
2019-04-11T01:27:29.866Z,97539.82
2019-04-11T01:29:58.303Z,97541.21
2019-04-11T01:32:26.617Z,97540.17
2019-04-11T01:34:55.106Z,97540.73
2019-04-11T01:37:23.931Z,97538.68
2019-04-11T01:39:59.460Z,97538.42
2019-04-11T01:42:28.741Z,97541.95
2019-04-11T01:44:57.137Z,97543.84
2019-04-11T01:47:43.223Z,97543.38
2019-04-11T01:50:13.251Z,97543.96
2019-04-11T01:52:42.488Z,97547.77
2019-04-11T01:55:10.930Z,97544.57
2019-04-11T01:57:40.241Z,97540.81
2019-04-11T02:00:12.221Z,97544.30
2019-04-11T02:02:46.436Z,97543.49
2019-04-11T02:05:16.749Z,97545.91
2019-04-11T02:07:45.151Z,97545.14
2019-04-11T02:10:14.715Z,97545.70
2019-04-11T02:12:43.601Z,97539.88
2019-04-11T02:15:12.352Z,97536.68
2019-04-11T02:17:41.139Z,97538.07
2019-04-11T02:20:09.829Z,97545.58
2019-04-11T02:22:48.790Z,97550.16
2019-04-11T02:25:35.260Z,97554.17
2019-04-11T02:28:06.485Z,97556.87
2019-04-11T02:30:38.708Z,97564.67
2019-04-11T02:33:07.683Z,97562.27
2019-04-11T02:35:37.398Z,97559.59
2019-04-11T02:38:07.547Z,97565.50
2019-04-11T02:40:36.809Z,97568.45
2019-04-11T02:43:07.123Z,97573.03
2019-04-11T02:45:45.307Z,97582.95
2019-04-11T02:48:07.825Z,97574.12
2019-04-11T02:50:37.156Z,97560.50
2019-04-11T02:53:07.229Z,97576.84
2019-04-11T02:55:37.821Z,97586.20
2019-04-11T02:58:07.855Z,97582.17
2019-04-11T03:00:37.634Z,97587.52
2019-04-11T03:03:07.954Z,97589.92
2019-04-11T03:05:37.486Z,97585.65
2019-04-11T03:08:11.148Z,97589.16
2019-04-11T03:10:37.770Z,97589.43
2019-04-11T03:13:08.243Z,97589.70
2019-04-11T03:15:48.882Z,97584.65
2019-04-11T03:18:09.522Z,97588.92
2019-04-11T03:20:47.332Z,97588.92
2019-04-11T03:23:09.870Z,97598.55
2019-04-11T03:25:38.515Z,97591.09
2019-04-11T03:28:12.109Z,97593.22
2019-04-11T03:30:54.186Z,97595.89
2019-04-11T03:38:30.897Z,97599.11
2019-04-11T03:40:57.031Z,97605.50
2019-04-11T03:43:20.859Z,97609.00
2019-04-11T03:46:01.822Z,97602.84
2019-04-11T03:48:23.660Z,97609.51
2019-04-11T03:50:39.479Z,97609.24
2019-04-11T03:53:10.934Z,97615.13
2019-04-11T03:55:39.147Z,97613.50
2019-04-11T03:58:08.553Z,97618.83
2019-04-11T04:00:41.219Z,97617.51
2019-04-11T04:03:09.083Z,97614.03
2019-04-11T04:05:39.101Z,97615.08
2019-04-11T04:08:08.966Z,97615.61
2019-04-11T04:10:41.552Z,97631.63
2019-04-11T04:13:15.368Z,97631.63
2019-04-11T04:16:02.764Z,97634.28
2019-04-11T04:18:34.106Z,97621.70
2019-04-11T04:21:10.784Z,97629.18
2019-04-11T04:23:41.047Z,97630.77
2019-04-11T04:26:11.579Z,97630.75
2019-04-11T04:28:40.804Z,97630.75
2019-04-11T04:31:11.394Z,97624.27
2019-04-11T04:33:40.295Z,97633.61
2019-04-11T04:36:10.773Z,97640.03
2019-04-11T04:38:41.194Z,97648.30
2019-04-11T04:41:19.720Z,97648.30
2019-04-11T04:43:41.141Z,97651.73
2019-04-11T04:46:25.937Z,97641.58
2019-04-11T04:48:41.032Z,97646.87
2019-04-11T04:51:12.032Z,97646.87
2019-04-11T04:53:41.072Z,97655.94
2019-04-11T04:56:10.994Z,97656.76
2019-04-11T04:58:39.978Z,97658.08
2019-04-11T05:01:09.934Z,97657.80
2019-04-11T05:03:40.275Z,97657.80
2019-04-11T05:06:10.131Z,97658.09
2019-04-11T05:08:39.024Z,97658.09
2019-04-11T05:11:07.765Z,97657.50
2019-04-11T05:13:36.714Z,97654.58
2019-04-11T05:16:16.391Z,97665.31
2019-04-11T05:18:36.472Z,97669.63
2019-04-11T05:21:05.346Z,97669.63
2019-04-11T05:23:33.907Z,97673.12
2019-04-11T05:26:03.456Z,97659.77
2019-04-11T05:28:31.956Z,97669.44
2019-04-11T05:31:00.467Z,97673.53
2019-04-11T05:33:29.399Z,97679.98
2019-04-11T05:35:58.539Z,97683.48
2019-04-11T05:38:27.332Z,97680.86
2019-04-11T05:40:56.657Z,97680.34
2019-04-11T05:43:29.292Z,97681.18
2019-04-11T05:45:56.635Z,97683.57
2019-04-11T05:48:27.108Z,97685.44
2019-04-11T05:50:56.205Z,97694.23
2019-04-11T05:53:24.993Z,97688.77
2019-04-11T05:55:53.547Z,97686.11
2019-04-11T05:58:21.987Z,97692.67
2019-04-11T06:01:01.440Z,97689.97
2019-04-11T06:03:30.262Z,97691.44
2019-04-11T06:06:12.822Z,97691.33
2019-04-11T06:08:42.031Z,97693.69
2019-04-11T06:11:16.953Z,97698.31
2019-04-11T06:13:44.740Z,97693.72
2019-04-11T06:16:14.589Z,97703.05
2019-04-11T06:18:48.134Z,97700.06
2019-04-11T06:21:35.886Z,97699.17
2019-04-11T06:24:12.156Z,97697.42
2019-04-11T06:26:45.573Z,97700.67
2019-04-11T06:29:24.351Z,97703.81
2019-04-11T06:32:05.651Z,97706.57
2019-04-11T06:34:51.270Z,97704.56
2019-04-11T06:37:29.903Z,97703.59
2019-04-11T06:40:02.608Z,97706.59
2019-04-11T06:42:39.269Z,97706.63
2019-04-11T06:45:21.871Z,97705.36
2019-04-11T06:47:59.007Z,97707.73
2019-04-11T06:50:33.350Z,97709.64
2019-04-11T06:53:02.321Z,97709.73
2019-04-11T06:55:48.475Z,97713.31
2019-04-11T06:58:21.521Z,97713.73
2019-04-11T07:00:53.531Z,97722.23
2019-04-11T07:03:30.841Z,97723.02
2019-04-11T07:06:01.316Z,97723.87
2019-04-11T07:08:32.117Z,97719.78
2019-04-11T07:11:08.057Z,97719.63
2019-04-11T07:13:49.934Z,97720.00
2019-04-11T07:16:18.612Z,97717.41
2019-04-11T07:19:05.858Z,97721.50
2019-04-11T07:21:35.329Z,97718.49
2019-04-11T07:24:24.679Z,97719.80
2019-04-11T07:26:54.797Z,97714.77
2019-04-11T07:29:31.540Z,97724.51
2019-04-11T07:32:04.983Z,97722.94
2019-04-11T07:34:36.256Z,97722.37
2019-04-11T07:37:23.528Z,97722.52
2019-04-11T07:39:53.921Z,97726.33
2019-04-11T07:42:26.600Z,97722.50
2019-04-11T07:44:57.617Z,97726.55
2019-04-11T07:47:33.477Z,97727.05
2019-04-11T07:50:04.171Z,97725.67
2019-04-11T07:52:34.507Z,97727.42
2019-04-11T07:55:03.057Z,97726.02
2019-04-11T07:57:36.191Z,97724.57
2019-04-11T08:00:13.043Z,97723.92
2019-04-11T08:03:01.942Z,97735.04
2019-04-11T08:05:44.642Z,97737.16
2019-04-11T08:08:17.630Z,97735.55
2019-04-11T08:10:56.691Z,97738.72
2019-04-11T08:13:43.288Z,97738.09
2019-04-11T08:16:30.787Z,97739.02
2019-04-11T08:19:17.643Z,97733.66
2019-04-11T08:22:04.190Z,97735.70
2019-04-11T08:24:36.692Z,97732.63
2019-04-11T08:27:23.237Z,97737.27
2019-04-11T08:29:53.067Z,97732.48
2019-04-11T08:32:38.155Z,97736.84
2019-04-11T08:35:24.349Z,97736.61
2019-04-11T08:38:00.956Z,97736.47
2019-04-11T08:40:51.283Z,97738.91
2019-04-11T08:43:27.408Z,97731.11
2019-04-11T08:46:00.597Z,97741.11
2019-04-11T08:48:30.830Z,97746.47
2019-04-11T08:51:00.989Z,97741.69
2019-04-11T08:53:33.730Z,97725.47
2019-04-11T08:56:04.036Z,97747.48
2019-04-11T08:58:44.861Z,97744.72
2019-04-11T09:01:18.098Z,97745.38
2019-04-11T09:03:59.779Z,97745.55
2019-04-11T09:06:20.827Z,97746.66
2019-04-11T09:08:56.880Z,97742.73
2019-04-11T09:11:30.840Z,97743.88
2019-04-11T09:14:16.855Z,97741.83
2019-04-11T09:16:47.917Z,97749.45
2019-04-11T09:19:30.669Z,97754.75
2019-04-11T09:22:13.099Z,97752.05
2019-04-11T09:24:43.321Z,97757.66
2019-04-11T09:27:30.980Z,97754.26
2019-04-11T09:30:19.093Z,97756.68
2019-04-11T09:33:05.229Z,97760.66
2019-04-11T09:35:37.873Z,97752.89
2019-04-11T09:38:10.460Z,97745.96
2019-04-11T09:40:47.899Z,97754.77
2019-04-11T09:43:18.076Z,97753.67
2019-04-11T09:46:00.361Z,97747.50
2019-04-11T09:48:46.713Z,97749.52
2019-04-11T09:51:19.411Z,97750.73
2019-04-11T09:53:50.694Z,97740.11
2019-04-11T09:56:20.850Z,97747.52
2019-04-11T09:58:51.878Z,97750.22
2019-04-11T10:01:30.945Z,97751.11
2019-04-11T10:03:59.522Z,97745.39
2019-04-11T10:06:46.523Z,97755.33
2019-04-11T10:09:15.608Z,97742.91
2019-04-11T10:11:52.571Z,97747.06
2019-04-11T10:14:21.736Z,97748.42
2019-04-11T10:17:08.688Z,97751.64
2019-04-11T10:19:38.269Z,97744.47
2019-04-11T10:22:15.107Z,97745.02
2019-04-11T10:25:01.020Z,97750.88
2019-04-11T10:27:47.574Z,97756.80
2019-04-11T10:30:33.963Z,97752.06
2019-04-11T10:33:16.981Z,97751.38
2019-04-11T10:35:58.963Z,97739.64
2019-04-11T10:38:28.669Z,97751.72
2019-04-11T10:40:58.931Z,97754.66
2019-04-11T10:43:27.213Z,97750.82
2019-04-11T10:46:00.793Z,97760.02
2019-04-11T10:48:38.792Z,97761.84
2019-04-11T10:51:03.070Z,97749.35
2019-04-11T10:53:31.445Z,97756.22
2019-04-11T10:56:18.072Z,97752.31
2019-04-11T10:58:49.021Z,97746.84
2019-04-11T11:01:25.607Z,97751.10
2019-04-11T11:04:09.481Z,97754.97
2019-04-11T11:06:37.970Z,97756.91
2019-04-11T11:09:20.268Z,97753.84
2019-04-11T11:12:06.713Z,97750.44
2019-04-11T11:14:49.042Z,97755.97
2019-04-11T11:17:43.501Z,97757.21
2019-04-11T11:20:03.612Z,97758.91
2019-04-11T11:22:23.812Z,97762.05
2019-04-11T11:25:13.577Z,97756.74
2019-04-11T11:27:41.839Z,97774.15
2019-04-11T11:30:21.168Z,97761.48
2019-04-11T11:32:49.726Z,97760.58
2019-04-11T11:35:24.081Z,97762.77
2019-04-11T11:37:50.236Z,97763.24
2019-04-11T11:40:41.272Z,97759.52
2019-04-11T11:43:12.909Z,97766.98
2019-04-11T11:45:59.340Z,97754.89
2019-04-11T11:48:33.410Z,97756.93
2019-04-11T11:51:06.800Z,97758.51
2019-04-11T11:53:42.843Z,97769.46
2019-04-11T11:56:12.336Z,97768.11
2019-04-11T11:58:48.769Z,97768.61
2019-04-11T12:01:26.057Z,97762.81
2019-04-11T12:04:00.146Z,97769.14
2019-04-11T12:06:27.131Z,97762.73
2019-04-11T12:09:09.918Z,97766.74
2019-04-11T12:11:40.037Z,97764.30
2019-04-11T12:14:25.610Z,97763.66
2019-04-11T12:17:04.820Z,97764.44
2019-04-11T12:19:49.324Z,97765.25
2019-04-11T12:22:12.425Z,97760.13
2019-04-11T12:24:58.455Z,97759.57
2019-04-11T12:27:32.889Z,97759.97
2019-04-11T12:30:23.882Z,97759.75
2019-04-11T12:32:55.786Z,97766.98
2019-04-11T12:35:38.130Z,97763.41
2019-04-11T12:38:13.830Z,97756.98
2019-04-11T12:40:46.934Z,97760.34
2019-04-11T12:43:16.979Z,97766.36
2019-04-11T12:45:49.432Z,97761.16
2019-04-11T12:48:18.195Z,97759.67
2019-04-11T12:50:54.363Z,97762.86
2019-04-11T12:53:22.815Z,97753.63
2019-04-11T12:56:08.963Z,97756.89
2019-04-11T12:58:41.811Z,97759.22
2019-04-11T13:01:26.945Z,97758.30
2019-04-11T13:04:08.525Z,97754.69
2019-04-11T13:06:38.510Z,97755.41
2019-04-11T13:09:19.686Z,97756.40
2019-04-11T13:11:49.730Z,97749.66
2019-04-11T13:14:28.488Z,97748.05
2019-04-11T13:17:15.342Z,97748.47
2019-04-11T13:19:45.302Z,97752.53
2019-04-11T13:22:18.041Z,97747.30
2019-04-11T13:24:48.051Z,97747.63
2019-04-11T13:27:18.417Z,97747.59
2019-04-11T13:30:04.723Z,97746.67
2019-04-11T13:32:37.819Z,97750.27
2019-04-11T13:35:25.298Z,97750.00
2019-04-11T13:38:07.078Z,97759.91
2019-04-11T13:40:46.147Z,97754.17
2019-04-11T13:43:31.572Z,97754.51
2019-04-11T13:46:07.278Z,97754.84
2019-04-11T13:48:53.608Z,97750.55
2019-04-11T13:51:32.775Z,97762.05
2019-04-11T13:54:19.486Z,97754.03
2019-04-11T13:56:58.722Z,97760.11
2019-04-11T13:59:34.587Z,97762.14
2019-04-11T14:02:17.660Z,97760.78
2019-04-11T14:04:54.577Z,97760.92
2019-04-11T14:07:27.736Z,97754.72
2019-04-11T14:10:01.686Z,97756.62
2019-04-11T14:12:30.084Z,97741.72
2019-04-11T14:15:00.219Z,97750.39
2019-04-11T14:17:48.477Z,97751.37
2019-04-11T14:20:30.140Z,97747.88
2019-04-11T14:23:05.446Z,97743.81
2019-04-11T14:25:35.908Z,97754.05
2019-04-11T14:28:08.161Z,97751.27
2019-04-11T14:30:41.050Z,97751.38
2019-04-11T14:33:09.426Z,97753.31
2019-04-11T14:35:42.570Z,97750.11
2019-04-11T14:38:15.359Z,97757.55
2019-04-11T14:41:02.205Z,97751.98
2019-04-11T14:43:32.258Z,97758.41
2019-04-11T14:46:18.445Z,97751.19
2019-04-11T14:48:51.710Z,97752.08
2019-04-11T14:51:31.593Z,97747.82
2019-04-11T14:54:18.191Z,97753.55
2019-04-11T14:57:03.830Z,97749.00
2019-04-11T14:59:36.894Z,97758.77
2019-04-11T15:02:19.065Z,97753.06
2019-04-11T15:05:07.316Z,97754.29
2019-04-11T15:07:39.823Z,97753.23
2019-04-11T15:10:21.839Z,97753.15
2019-04-11T15:12:51.139Z,97753.35
2019-04-11T15:15:30.128Z,97756.14
2019-04-11T15:18:02.961Z,97759.30
2019-04-11T15:20:34.225Z,97759.77
2019-04-11T15:23:06.972Z,97759.27
2019-04-11T15:25:37.899Z,97755.19
2019-04-11T15:28:12.367Z,97754.55
2019-04-11T15:30:39.962Z,97764.84
2019-04-11T15:33:15.600Z,97758.66
2019-04-11T15:35:45.688Z,97759.14
2019-04-11T15:38:17.398Z,97764.00
2019-04-11T15:40:46.586Z,97765.98
2019-04-11T15:43:28.657Z,97766.05
2019-04-11T15:46:01.182Z,97767.86
2019-04-11T15:48:42.025Z,97768.03
2019-04-11T15:51:26.883Z,97764.91
2019-04-11T15:54:15.084Z,97766.64
2019-04-11T15:56:54.541Z,97770.98
2019-04-11T15:59:24.642Z,97771.98
2019-04-11T16:02:10.825Z,97767.73
2019-04-11T16:04:46.795Z,97770.56
2019-04-11T16:07:25.876Z,97764.02
2019-04-11T16:09:58.551Z,97769.95
2019-04-11T16:12:37.263Z,97761.88
2019-04-11T16:15:08.779Z,97765.69
2019-04-11T16:17:57.783Z,97765.33
2019-04-11T16:20:25.428Z,97767.30
2019-04-11T16:22:57.820Z,97769.91
2019-04-11T16:25:29.031Z,97770.25
2019-04-11T16:28:08.119Z,97774.13
2019-04-11T16:30:39.710Z,97768.47
2019-04-11T16:33:13.496Z,97776.36
2019-04-11T16:35:48.930Z,97771.80
2019-04-11T16:38:23.554Z,97774.45
2019-04-11T16:41:02.354Z,97774.27
2019-04-11T16:43:32.108Z,97774.86
2019-04-11T16:46:08.040Z,97782.19
2019-04-11T16:48:36.366Z,97784.40
2019-04-11T16:51:06.036Z,97783.11
2019-04-11T16:53:34.529Z,97787.16
2019-04-11T16:56:03.025Z,97782.76
2019-04-11T16:58:33.702Z,97775.07
2019-04-11T17:01:02.049Z,97780.42
2019-04-11T17:03:31.605Z,97778.96
2019-04-11T17:06:01.571Z,97777.86
2019-04-11T17:08:34.488Z,97782.82
2019-04-11T17:11:04.739Z,97783.92
2019-04-11T17:13:33.164Z,97786.08
2019-04-11T17:16:02.727Z,97786.38
2019-04-11T17:18:34.121Z,97788.58
2019-04-11T17:21:01.429Z,97789.22
2019-04-11T17:23:30.385Z,97786.32
2019-04-11T17:25:58.857Z,97792.08
2019-04-11T17:28:27.422Z,97788.83
2019-04-11T17:30:55.999Z,97794.63
2019-04-11T17:33:28.602Z,97799.06
2019-04-11T17:35:56.184Z,97801.56
2019-04-11T17:38:26.239Z,97795.77
2019-04-11T17:40:54.750Z,97802.65
2019-04-11T17:43:23.233Z,97811.65
2019-04-11T17:45:51.524Z,97807.05
2019-04-11T17:48:19.942Z,97808.80
2019-04-11T17:50:48.395Z,97816.94
2019-04-11T17:53:16.990Z,97815.67
2019-04-11T17:55:45.386Z,97816.02
2019-04-11T17:58:13.886Z,97823.95
2019-04-11T18:00:55.574Z,97819.91
2019-04-11T18:03:24.020Z,97827.12
2019-04-11T18:05:52.507Z,97839.30
2019-04-11T18:08:20.974Z,97842.63
2019-04-11T18:10:49.236Z,97844.17
2019-04-11T18:13:17.834Z,97844.72
2019-04-11T18:15:46.153Z,97843.67
2019-04-11T18:18:14.546Z,97849.41
2019-04-11T18:20:43.071Z,97849.45
2019-04-11T18:23:11.648Z,97849.45
2019-04-11T18:25:40.131Z,97851.70
2019-04-11T18:28:08.652Z,97855.91
2019-04-11T18:30:37.153Z,97857.25
2019-04-11T18:33:05.732Z,97860.89
2019-04-11T18:35:34.251Z,97868.76
2019-04-11T18:38:05.950Z,97870.98
2019-04-11T18:40:34.420Z,97875.05
2019-04-11T18:43:03.672Z,97878.55
2019-04-11T18:45:32.225Z,97876.77
2019-04-11T18:48:01.606Z,97877.70
2019-04-11T18:50:30.244Z,97884.73
2019-04-11T18:52:59.637Z,97882.32
2019-04-11T18:55:28.696Z,97880.52
2019-04-11T18:57:57.142Z,97885.40
2019-04-11T19:00:28.879Z,97887.39
2019-04-11T19:02:58.622Z,97893.64
2019-04-11T19:05:28.928Z,97895.88
2019-04-11T19:08:02.385Z,97899.41
2019-04-11T19:10:30.809Z,97903.70
2019-04-11T19:12:59.661Z,97906.26
2019-04-11T19:15:28.736Z,97908.27
2019-04-11T19:18:06.071Z,97909.12
2019-04-11T19:20:27.425Z,97911.69
2019-04-11T19:22:56.029Z,97906.88
2019-04-11T19:25:24.628Z,97911.77
2019-04-11T19:27:54.325Z,97920.56
2019-04-11T19:30:23.953Z,97915.84
2019-04-11T19:32:53.392Z,97919.17
2019-04-11T19:35:21.823Z,97920.86
2019-04-11T19:37:50.178Z,97921.44
2019-04-11T19:40:18.612Z,97921.42
2019-04-11T19:42:49.255Z,97924.09
2019-04-11T19:45:19.550Z,97924.12
2019-04-11T19:47:51.496Z,97919.13
2019-04-11T19:50:17.837Z,97917.02
2019-04-11T19:52:46.225Z,97914.39
2019-04-11T19:55:16.411Z,97918.50
2019-04-11T19:57:44.848Z,97918.48
2019-04-11T20:00:14.343Z,97917.50
2019-04-11T20:02:42.706Z,97913.48
2019-04-11T20:05:12.379Z,97912.17
2019-04-11T20:07:40.814Z,97924.02
2019-04-11T20:10:09.365Z,97921.13
2019-04-11T20:12:37.701Z,97923.86
2019-04-11T20:15:08.655Z,97918.49
2019-04-11T20:17:44.174Z,97922.87
2019-04-11T20:20:08.076Z,97917.81
2019-04-11T20:22:39.280Z,97923.45
2019-04-11T20:25:07.295Z,97923.17
2019-04-11T20:27:35.668Z,97934.78
2019-04-11T20:30:05.878Z,97930.23
2019-04-11T20:32:34.238Z,97934.53
2019-04-11T20:35:02.604Z,97930.77
2019-04-11T20:37:39.268Z,97931.59
2019-04-11T20:40:02.799Z,97937.23
2019-04-11T20:42:31.230Z,97936.75
2019-04-11T20:44:59.543Z,97936.76
2019-04-11T20:47:29.608Z,97937.03
2019-04-11T20:49:57.946Z,97932.75
2019-04-11T20:52:26.270Z,97935.17
2019-04-11T20:54:54.646Z,97933.03
2019-04-11T20:57:25.986Z,97936.78
2019-04-11T20:59:53.224Z,97931.69
2019-04-11T21:02:21.543Z,97939.48
2019-04-11T21:04:49.862Z,97941.14
2019-04-11T21:07:18.294Z,97939.78
2019-04-11T21:09:46.706Z,97936.84
2019-04-11T21:12:16.636Z,97941.39
2019-04-11T21:14:45.272Z,97941.72
2019-04-11T21:17:13.608Z,97941.73
2019-04-11T21:19:41.982Z,97939.86
2019-04-11T21:22:10.455Z,97947.13
2019-04-11T21:24:38.782Z,97951.16
2019-04-11T21:27:07.266Z,97955.18
2019-04-11T21:29:35.584Z,97957.06
2019-04-11T21:32:04.015Z,97950.63
2019-04-11T21:34:32.934Z,97953.05
2019-04-11T21:37:02.558Z,97958.17
2019-04-11T21:39:31.050Z,97953.35
2019-04-11T21:41:59.455Z,97960.05
2019-04-11T21:44:27.827Z,97963.00
2019-04-11T21:46:56.411Z,97965.69
2019-04-11T21:49:24.734Z,97967.32
2019-04-11T21:51:53.040Z,97964.91
2019-04-11T21:54:21.457Z,97969.20
2019-04-11T21:56:50.392Z,97973.22
2019-04-11T21:59:20.402Z,97969.73
2019-04-11T22:01:49.046Z,97970.55
2019-04-11T22:04:17.921Z,97969.74
2019-04-11T22:06:46.248Z,97971.89
2019-04-11T22:09:14.702Z,97973.48
2019-04-11T22:11:43.086Z,97971.09
2019-04-11T22:14:11.914Z,97973.51
2019-04-11T22:16:44.058Z,97974.30
2019-04-11T22:19:13.957Z,97964.64
2019-04-11T22:21:45.004Z,97974.81
2019-04-11T22:24:10.953Z,97966.00
2019-04-11T22:26:39.349Z,97967.06
2019-04-11T22:29:07.792Z,97969.72
2019-04-11T22:31:36.074Z,97974.00
2019-04-11T22:34:15.328Z,97969.98
2019-04-11T22:36:43.672Z,97978.53
2019-04-11T22:39:12.061Z,97975.34
2019-04-11T22:41:40.516Z,97985.23
2019-04-11T22:44:09.154Z,97979.34
2019-04-11T22:46:38.294Z,97982.27
2019-04-11T22:49:08.758Z,97979.33
2019-04-11T22:51:36.780Z,97983.06
2019-04-11T22:54:05.164Z,97977.98
2019-04-11T22:56:33.549Z,97980.64
2019-04-11T22:59:01.882Z,97980.91
2019-04-11T23:01:30.324Z,97977.41
2019-04-11T23:04:00.398Z,97975.52
2019-04-11T23:06:28.825Z,97977.66
2019-04-11T23:08:57.431Z,97973.64
2019-04-11T23:11:25.745Z,97975.50
2019-04-11T23:13:54.231Z,97979.45
2019-04-11T23:16:22.797Z,97969.55
2019-04-11T23:18:51.151Z,97973.52
2019-04-11T23:21:19.657Z,97971.09
2019-04-11T23:23:48.067Z,97974.28
2019-04-11T23:26:17.422Z,97982.83
2019-04-11T23:28:46.715Z,97981.72
2019-04-11T23:31:19.748Z,97980.91
2019-04-11T23:33:46.223Z,97985.73
2019-04-11T23:36:14.599Z,97988.37
2019-04-11T23:38:42.889Z,97984.11
2019-04-11T23:41:12.436Z,97981.44
2019-04-11T23:43:40.918Z,97983.31
2019-04-11T23:46:09.233Z,97985.70
2019-04-11T23:48:37.597Z,97981.95
2019-04-11T23:51:06.007Z,97989.44
2019-04-11T23:53:34.285Z,97985.67
2019-04-11T23:56:02.866Z,97986.71
2019-04-11T23:58:32.047Z,97980.27
